createdAt,value
2018-11-06T00:00:56.435Z,35.20
2018-11-06T00:03:30.304Z,37.03
2018-11-06T00:05:59.407Z,36.63
2018-11-06T00:08:28.110Z,64.03
2018-11-06T00:10:56.925Z,35.77
2018-11-06T00:13:25.707Z,31.60
2018-11-06T00:15:55.709Z,30.47
2018-11-06T00:18:26.629Z,29.40
2018-11-06T00:20:55.523Z,38.17
2018-11-06T00:23:24.682Z,31.57
2018-11-06T00:25:53.710Z,31.73
2018-11-06T00:28:22.765Z,32.97
2018-11-06T00:30:51.545Z,32.67
2018-11-06T00:33:20.150Z,35.07
2018-11-06T00:35:49.360Z,32.33
2018-11-06T00:38:18.114Z,30.50
2018-11-06T00:40:46.896Z,30.10
2018-11-06T00:43:15.648Z,31.67
2018-11-06T00:45:44.299Z,30.90
2018-11-06T00:48:13.002Z,29.00
2018-11-06T00:50:41.735Z,28.27
2018-11-06T00:53:10.480Z,27.73
2018-11-06T00:55:39.297Z,27.23
2018-11-06T00:58:08.031Z,27.37
2018-11-06T01:00:37.146Z,27.63
2018-11-06T01:03:05.793Z,26.43
2018-11-06T01:05:34.374Z,27.33
2018-11-06T01:08:03.107Z,25.50
2018-11-06T01:10:31.932Z,29.57
2018-11-06T01:13:00.632Z,25.10
2018-11-06T01:15:29.389Z,25.57
2018-11-06T01:17:58.102Z,27.97
2018-11-06T01:20:26.764Z,27.73
2018-11-06T01:22:55.560Z,30.77
2018-11-06T01:25:25.583Z,33.23
2018-11-06T01:27:54.276Z,33.77
2018-11-06T01:30:22.878Z,33.17
2018-11-06T01:32:51.560Z,34.27
2018-11-06T01:35:20.360Z,33.13
2018-11-06T01:37:49.274Z,34.57
2018-11-06T01:40:18.996Z,33.53
2018-11-06T01:42:48.503Z,34.97
2018-11-06T01:45:17.955Z,30.97
2018-11-06T01:47:46.560Z,32.00
2018-11-06T01:50:17.211Z,31.33
2018-11-06T01:52:46.851Z,33.37
2018-11-06T01:55:15.654Z,32.10
2018-11-06T01:57:44.348Z,33.07
2018-11-06T02:00:18.306Z,37.33
2018-11-06T02:02:47.230Z,34.57
2018-11-06T02:05:17.242Z,34.90
2018-11-06T02:07:47.118Z,33.73
2018-11-06T02:10:16.355Z,37.43
2018-11-06T02:12:46.062Z,35.40
2018-11-06T02:15:15.511Z,41.73
2018-11-06T02:17:44.966Z,37.53
2018-11-06T02:20:14.424Z,38.43
2018-11-06T02:22:44.049Z,35.97
2018-11-06T02:25:13.373Z,33.97
2018-11-06T02:27:42.074Z,34.67
2018-11-06T02:30:12.887Z,37.20
2018-11-06T02:32:42.392Z,36.93
2018-11-06T02:35:11.138Z,35.43
2018-11-06T02:37:39.968Z,34.03
2018-11-06T02:40:10.493Z,36.60
2018-11-06T02:42:39.304Z,37.23
2018-11-06T02:45:08.549Z,35.17
2018-11-06T02:47:37.129Z,37.73
2018-11-06T02:50:06.273Z,37.27
2018-11-06T02:52:34.928Z,32.33
2018-11-06T02:55:04.012Z,36.50
2018-11-06T02:57:32.692Z,37.80
2018-11-06T03:00:02.391Z,37.50
2018-11-06T03:02:31.114Z,36.10
2018-11-06T03:04:59.812Z,37.13
2018-11-06T03:07:28.446Z,34.53
2018-11-06T03:09:57.073Z,35.40
2018-11-06T03:12:25.656Z,35.70
2018-11-06T03:14:54.371Z,34.90
2018-11-06T03:17:23.145Z,31.63
2018-11-06T03:19:51.883Z,35.30
2018-11-06T03:22:20.468Z,31.57
2018-11-06T03:24:49.201Z,36.77
2018-11-06T03:27:17.999Z,34.57
2018-11-06T03:29:46.682Z,33.43
2018-11-06T03:32:15.273Z,32.63
2018-11-06T03:34:44.126Z,36.00
2018-11-06T03:37:12.909Z,32.73
2018-11-06T03:39:41.560Z,32.43
2018-11-06T03:42:10.114Z,33.73
2018-11-06T03:44:38.836Z,34.57
2018-11-06T03:47:07.534Z,33.30
2018-11-06T03:49:36.272Z,31.70
2018-11-06T03:52:04.995Z,36.07
2018-11-06T03:54:33.663Z,35.13
2018-11-06T03:57:02.596Z,34.70
2018-11-06T03:59:31.213Z,35.17
2018-11-06T04:02:00.084Z,35.00
2018-11-06T04:04:28.870Z,36.37
2018-11-06T04:06:57.496Z,33.87
2018-11-06T04:09:26.227Z,36.13
2018-11-06T04:11:54.735Z,31.23
2018-11-06T04:14:23.413Z,35.73
2018-11-06T04:16:52.061Z,32.80
2018-11-06T04:19:20.691Z,34.13
2018-11-06T04:21:49.481Z,36.00
2018-11-06T04:24:18.159Z,32.40
2018-11-06T04:26:46.851Z,31.30
2018-11-06T04:29:15.616Z,31.80
2018-11-06T04:31:44.372Z,33.40
2018-11-06T04:34:13.676Z,31.63
2018-11-06T04:36:42.474Z,33.33
2018-11-06T04:39:11.807Z,34.83
2018-11-06T04:41:40.511Z,32.10
2018-11-06T04:44:09.211Z,31.83
2018-11-06T04:46:37.874Z,32.07
2018-11-06T04:49:07.072Z,32.17
2018-11-06T04:51:35.843Z,31.23
2018-11-06T04:54:04.636Z,32.13
2018-11-06T04:56:33.446Z,32.70
2018-11-06T04:59:02.371Z,29.10
2018-11-06T05:01:31.057Z,32.27
2018-11-06T05:03:59.884Z,32.40
2018-11-06T05:06:28.483Z,29.27
2018-11-06T05:08:57.154Z,32.03
2018-11-06T05:11:25.942Z,29.33
2018-11-06T05:13:54.796Z,32.77
2018-11-06T05:16:23.508Z,29.13
2018-11-06T05:18:52.179Z,30.23
2018-11-06T05:21:20.773Z,30.50
2018-11-06T05:23:49.586Z,33.90
2018-11-06T05:26:18.576Z,35.00
2018-11-06T05:28:47.973Z,31.43
2018-11-06T05:31:17.056Z,32.03
2018-11-06T05:33:45.802Z,32.73
2018-11-06T05:36:14.479Z,34.60
2018-11-06T05:38:43.086Z,29.13
2018-11-06T05:41:11.647Z,31.20
2018-11-06T05:43:40.359Z,32.80
2018-11-06T05:46:09.047Z,32.73
2018-11-06T05:48:37.814Z,30.73
2018-11-06T05:51:06.730Z,31.50
2018-11-06T05:53:35.344Z,35.07
2018-11-06T05:56:05.463Z,29.63
2018-11-06T05:58:34.214Z,31.03
2018-11-06T06:01:03.648Z,30.63
2018-11-06T06:03:32.490Z,30.63
2018-11-06T06:06:02.040Z,34.73
2018-11-06T06:08:30.913Z,32.10
2018-11-06T06:10:59.667Z,35.43
2018-11-06T06:13:28.378Z,32.57
2018-11-06T06:15:56.988Z,32.87
2018-11-06T06:18:25.973Z,30.57
2018-11-06T06:20:54.678Z,34.10
2018-11-06T06:23:23.438Z,32.03
2018-11-06T06:25:52.252Z,31.10
2018-11-06T06:28:21.264Z,32.63
2018-11-06T06:30:49.981Z,31.00
2018-11-06T06:33:18.654Z,32.37
2018-11-06T06:35:47.314Z,32.57
2018-11-06T06:38:16.051Z,30.17
2018-11-06T06:40:44.755Z,30.10
2018-11-06T06:43:13.699Z,32.43
2018-11-06T06:45:42.564Z,28.80
2018-11-06T06:48:11.279Z,30.93
2018-11-06T06:50:39.934Z,29.03
2018-11-06T06:53:08.705Z,30.17
2018-11-06T06:55:37.399Z,29.87
2018-11-06T06:58:06.064Z,33.23
2018-11-06T07:00:34.748Z,30.13
2018-11-06T07:03:04.100Z,31.03
2018-11-06T07:05:32.685Z,32.07
2018-11-06T07:08:01.429Z,30.50
2018-11-06T07:10:30.152Z,31.53
2018-11-06T07:12:59.168Z,30.03
2018-11-06T07:15:27.933Z,30.17
2018-11-06T07:17:56.635Z,29.53
2018-11-06T07:20:26.172Z,31.47
2018-11-06T07:22:54.934Z,29.57
2018-11-06T07:25:23.849Z,25.47
2018-11-06T07:27:52.692Z,29.50
2018-11-06T07:30:22.565Z,30.13
2018-11-06T07:32:51.335Z,30.17
2018-11-06T07:35:20.564Z,30.87
2018-11-06T07:37:49.170Z,31.17
2018-11-06T07:40:19.275Z,31.07
2018-11-06T07:42:48.167Z,32.60
2018-11-06T07:45:19.242Z,27.97
2018-11-06T07:47:47.928Z,28.27
2018-11-06T07:50:16.572Z,26.13
2018-11-06T07:52:45.565Z,28.20
2018-11-06T07:55:17.517Z,30.30
2018-11-06T07:57:46.189Z,30.30
2018-11-06T08:00:18.412Z,28.67
2018-11-06T08:02:47.990Z,27.03
2018-11-06T08:05:17.124Z,26.87
2018-11-06T08:07:46.559Z,28.87
2018-11-06T08:10:15.181Z,23.33
2018-11-06T08:12:46.170Z,26.83
2018-11-06T08:15:15.265Z,28.07
2018-11-06T08:17:44.871Z,26.77
2018-11-06T08:20:13.622Z,30.63
2018-11-06T08:22:42.479Z,27.53
2018-11-06T08:25:12.616Z,28.50
2018-11-06T08:27:42.138Z,27.50
2018-11-06T08:30:11.763Z,27.73
2018-11-06T08:32:40.756Z,27.83
2018-11-06T08:35:11.721Z,29.63
2018-11-06T08:37:40.428Z,27.03
2018-11-06T08:40:10.155Z,26.77
2018-11-06T08:42:38.852Z,25.43
2018-11-06T08:45:10.086Z,25.40
2018-11-06T08:47:38.976Z,26.63
2018-11-06T08:50:09.325Z,24.40
2018-11-06T08:52:38.876Z,24.70
2018-11-06T08:55:09.023Z,25.90
2018-11-06T08:57:37.775Z,24.33
2018-11-06T09:00:08.712Z,26.30
2018-11-06T09:02:37.861Z,23.73
2018-11-06T09:05:08.154Z,24.03
2018-11-06T09:07:37.251Z,24.33
2018-11-06T09:10:06.785Z,25.20
2018-11-06T09:12:35.483Z,24.80
2018-11-06T09:15:04.312Z,23.27
2018-11-06T09:17:32.952Z,22.37
2018-11-06T09:20:01.770Z,23.20
2018-11-06T09:22:30.547Z,23.83
2018-11-06T09:24:59.431Z,21.87
2018-11-06T09:27:28.171Z,21.03
2018-11-06T09:29:56.891Z,24.23
2018-11-06T09:32:25.574Z,23.93
2018-11-06T09:34:54.382Z,24.10
2018-11-06T09:37:23.050Z,22.90
2018-11-06T09:39:51.734Z,22.17
2018-11-06T09:42:20.524Z,20.53
2018-11-06T09:44:49.248Z,19.77
2018-11-06T09:47:17.893Z,21.47
2018-11-06T09:49:46.641Z,23.47
2018-11-06T09:52:15.436Z,22.17
2018-11-06T09:54:44.116Z,21.57
2018-11-06T09:57:13.341Z,20.57
2018-11-06T09:59:42.119Z,22.03
2018-11-06T10:02:10.895Z,21.17
2018-11-06T10:04:39.560Z,21.07
2018-11-06T10:07:08.814Z,23.97
2018-11-06T10:09:37.314Z,21.83
2018-11-06T10:12:06.284Z,22.17
2018-11-06T10:14:34.907Z,20.27
2018-11-06T10:17:04.234Z,18.80
2018-11-06T10:19:33.109Z,21.43
2018-11-06T10:22:01.717Z,23.43
2018-11-06T10:24:30.649Z,21.27
2018-11-06T10:26:59.412Z,21.57
2018-11-06T10:29:28.071Z,21.40
2018-11-06T10:31:56.900Z,20.30
2018-11-06T10:34:25.720Z,19.20
2018-11-06T10:36:54.551Z,19.27
2018-11-06T10:39:23.465Z,19.30
2018-11-06T10:41:52.237Z,19.63
2018-11-06T10:44:20.972Z,19.93
2018-11-06T10:46:49.741Z,21.27
2018-11-06T10:49:18.492Z,18.70
2018-11-06T10:51:47.438Z,19.67
2018-11-06T10:54:16.116Z,19.87
2018-11-06T10:56:44.906Z,19.27
2018-11-06T10:59:13.885Z,19.33
2018-11-06T11:01:47.814Z,18.50
2018-11-06T11:04:18.829Z,17.80
2018-11-06T11:06:47.642Z,17.97
2018-11-06T11:09:16.680Z,19.60
2018-11-06T11:11:45.330Z,18.73
2018-11-06T11:14:13.965Z,17.63
2018-11-06T11:16:42.892Z,20.67
2018-11-06T11:19:11.900Z,18.37
2018-11-06T11:21:40.771Z,17.97
2018-11-06T11:24:09.482Z,19.43
2018-11-06T11:26:38.295Z,18.33
2018-11-06T11:29:07.250Z,17.40
2018-11-06T11:31:36.136Z,18.33
2018-11-06T11:34:06.028Z,19.50
2018-11-06T11:36:34.870Z,19.37
2018-11-06T11:39:03.913Z,16.47
2018-11-06T11:41:32.691Z,16.90
2018-11-06T11:44:01.524Z,16.97
2018-11-06T11:46:30.226Z,18.60
2018-11-06T11:48:59.180Z,16.83
2018-11-06T11:51:27.981Z,15.87
2018-11-06T11:53:57.798Z,16.93
2018-11-06T11:56:26.753Z,17.57
2018-11-06T11:58:55.641Z,15.80
2018-11-06T12:01:24.355Z,16.13
2018-11-06T12:03:53.975Z,17.10
2018-11-06T12:06:22.690Z,18.17
2018-11-06T12:08:51.564Z,16.73
2018-11-06T12:11:20.511Z,17.53
2018-11-06T12:13:49.494Z,17.47
2018-11-06T12:16:18.794Z,16.37
2018-11-06T12:18:48.115Z,17.10
2018-11-06T12:21:17.024Z,16.70
2018-11-06T12:23:45.709Z,18.40
2018-11-06T12:26:15.212Z,16.50
2018-11-06T12:28:45.625Z,16.23
2018-11-06T12:31:20.363Z,15.93
2018-11-06T12:33:51.207Z,17.17
2018-11-06T12:36:40.876Z,15.67
2018-11-06T12:39:23.997Z,17.30
2018-11-06T12:41:55.553Z,15.60
2018-11-06T12:44:24.695Z,16.07
2018-11-06T12:46:57.696Z,17.63
2018-11-06T12:49:28.081Z,17.60
2018-11-06T12:51:57.810Z,17.17
2018-11-06T12:54:26.812Z,17.73
2018-11-06T12:56:57.598Z,17.00
2018-11-06T12:59:26.472Z,16.53
2018-11-06T13:01:55.757Z,17.53
2018-11-06T13:04:24.853Z,17.63
2018-11-06T13:06:53.874Z,18.97
2018-11-06T13:09:22.657Z,16.93
2018-11-06T13:11:52.128Z,20.00
2018-11-06T13:14:21.971Z,21.17
2018-11-06T13:16:58.810Z,19.70
2018-11-06T13:19:28.662Z,18.93
2018-11-06T13:21:58.407Z,19.50
2018-11-06T13:24:30.181Z,21.83
2018-11-06T13:27:06.793Z,20.87
2018-11-06T13:29:35.554Z,19.70
2018-11-06T13:32:05.528Z,19.30
2018-11-06T13:34:36.325Z,19.80
2018-11-06T13:37:06.380Z,19.50
2018-11-06T13:39:35.541Z,21.17
2018-11-06T13:42:10.139Z,21.10
2018-11-06T13:44:39.058Z,21.73
2018-11-06T13:47:07.677Z,23.73
2018-11-06T13:49:36.497Z,23.10
2018-11-06T13:52:05.399Z,22.93
2018-11-06T13:54:34.169Z,25.80
2018-11-06T13:57:04.299Z,23.77
2018-11-06T13:59:33.219Z,22.23
2018-11-06T14:02:01.957Z,24.23
2018-11-06T14:04:31.563Z,24.90
2018-11-06T14:07:00.499Z,26.07
2018-11-06T14:09:29.377Z,23.53
2018-11-06T14:11:58.289Z,24.37
2018-11-06T14:14:27.001Z,22.60
2018-11-06T14:16:55.765Z,26.23
2018-11-06T14:19:25.416Z,23.73
2018-11-06T14:21:54.270Z,25.63
2018-11-06T14:24:23.457Z,25.33
2018-11-06T14:26:52.499Z,26.73
2018-11-06T14:29:22.595Z,26.17
2018-11-06T14:31:51.783Z,24.60
2018-11-06T14:34:20.656Z,23.33
2018-11-06T14:36:49.529Z,22.80
2018-11-06T14:39:18.429Z,25.27
2018-11-06T14:41:47.150Z,26.80
2018-11-06T14:44:16.037Z,21.00
2018-11-06T14:46:44.781Z,23.80
2018-11-06T14:49:13.589Z,25.20
2018-11-06T14:51:42.390Z,23.20
2018-11-06T14:54:11.182Z,25.37
2018-11-06T14:56:40.245Z,24.07
2018-11-06T14:59:09.038Z,25.73
2018-11-06T15:01:37.805Z,22.80
2018-11-06T15:04:06.535Z,24.17
2018-11-06T15:06:35.322Z,20.90
2018-11-06T15:09:05.204Z,22.73
2018-11-06T15:11:34.214Z,24.60
2018-11-06T15:14:03.129Z,26.80
2018-11-06T15:16:32.010Z,25.00
2018-11-06T15:19:00.698Z,22.60
2018-11-06T15:21:29.627Z,21.80
2018-11-06T15:23:58.338Z,21.77
2018-11-06T15:26:27.321Z,24.83
2018-11-06T15:28:56.154Z,24.53
2018-11-06T15:31:25.045Z,21.77
2018-11-06T15:33:54.219Z,24.53
2018-11-06T15:36:23.086Z,24.07
2018-11-06T15:38:51.925Z,23.40
2018-11-06T15:41:20.717Z,22.87
2018-11-06T15:43:49.410Z,21.37
2018-11-06T15:46:18.183Z,21.23
2018-11-06T15:48:46.970Z,25.27
2018-11-06T15:51:15.623Z,21.87
2018-11-06T15:53:44.427Z,25.90
2018-11-06T15:56:13.291Z,26.17
2018-11-06T15:58:42.160Z,26.13
2018-11-06T16:01:18.139Z,24.63
2018-11-06T16:03:46.885Z,24.73
2018-11-06T16:06:16.277Z,25.13
2018-11-06T16:08:45.263Z,22.97
2018-11-06T16:11:14.092Z,25.03
2018-11-06T16:13:42.951Z,22.73
2018-11-06T16:16:11.900Z,22.90
2018-11-06T16:18:41.303Z,24.73
2018-11-06T16:21:10.162Z,25.60
2018-11-06T16:23:38.879Z,25.37
2018-11-06T16:26:08.412Z,23.77
2018-11-06T16:28:38.163Z,26.03
2018-11-06T16:31:07.255Z,28.97
2018-11-06T16:33:36.096Z,24.37
2018-11-06T16:36:05.850Z,25.17
2018-11-06T16:38:34.764Z,25.93
2018-11-06T16:41:03.681Z,27.60
2018-11-06T16:43:33.750Z,24.73
2018-11-06T16:46:02.874Z,21.83
2018-11-06T16:48:32.867Z,27.30
2018-11-06T16:51:01.584Z,26.83
2018-11-06T16:53:30.321Z,23.63
2018-11-06T16:58:49.292Z,24.00
2018-11-06T17:01:18.075Z,30.07
2018-11-06T17:03:48.385Z,28.47
2018-11-06T17:06:22.375Z,26.07
2018-11-06T17:08:52.275Z,25.77
2018-11-06T17:11:21.268Z,29.63
2018-11-06T17:13:50.863Z,27.97
2018-11-06T17:16:19.622Z,27.27
2018-11-06T17:18:48.408Z,25.60
2018-11-06T17:21:17.287Z,26.50
2018-11-06T17:23:46.328Z,26.57
2018-11-06T17:26:15.236Z,28.73
2018-11-06T17:28:44.113Z,29.30
2018-11-06T17:31:14.041Z,28.27
2018-11-06T17:33:43.100Z,28.77
2018-11-06T17:36:12.116Z,30.10
2018-11-06T17:38:43.030Z,31.07
2018-11-06T17:41:12.337Z,29.40
2018-11-06T17:43:41.390Z,29.67
2018-11-06T17:46:11.669Z,31.20
2018-11-06T17:48:41.015Z,29.17
2018-11-06T17:51:10.222Z,30.20
2018-11-06T17:53:43.662Z,29.20
2018-11-06T17:56:12.661Z,30.50
2018-11-06T17:58:41.413Z,29.63
2018-11-06T18:01:11.233Z,29.23
2018-11-06T18:03:40.952Z,30.87
2018-11-06T18:06:10.479Z,32.57
2018-11-06T18:08:39.615Z,35.53
2018-11-06T18:11:08.849Z,29.17
2018-11-06T18:13:38.460Z,28.50
2018-11-06T18:16:07.419Z,30.73
2018-11-06T18:18:37.076Z,29.83
2018-11-06T18:21:06.208Z,30.47
2018-11-06T18:23:35.873Z,31.07
2018-11-06T18:26:05.538Z,33.73
2018-11-06T18:28:35.019Z,31.20
2018-11-06T18:31:06.026Z,31.77
2018-11-06T18:33:35.365Z,33.57
2018-11-06T18:36:06.346Z,32.57
2018-11-06T18:38:36.217Z,32.90
2018-11-06T18:41:06.199Z,32.67
2018-11-06T18:43:35.620Z,34.90
2018-11-06T18:46:05.619Z,33.53
2018-11-06T18:48:34.594Z,33.07
2018-11-06T18:51:04.705Z,29.73
2018-11-06T18:53:33.606Z,32.53
2018-11-06T18:56:03.181Z,34.87
2018-11-06T18:58:31.851Z,31.83
2018-11-06T19:01:01.934Z,33.30
2018-11-06T19:03:31.450Z,31.50
2018-11-06T19:06:00.646Z,36.17
2018-11-06T19:08:29.738Z,31.00
2018-11-06T19:10:58.570Z,31.53
2018-11-06T19:13:27.556Z,32.73
2018-11-06T19:15:56.803Z,32.97
2018-11-06T19:18:27.090Z,33.50
2018-11-06T19:20:55.827Z,32.97
2018-11-06T19:23:24.895Z,34.27
2018-11-06T19:25:53.718Z,33.90
2018-11-06T19:28:22.390Z,38.17
2018-11-06T19:33:31.172Z,31.80
2018-11-06T19:36:00.228Z,34.03
2018-11-06T19:38:30.329Z,33.87
2018-11-06T19:40:59.238Z,34.53
2018-11-06T19:43:28.849Z,35.50
2018-11-06T19:45:58.215Z,37.30
2018-11-06T19:48:27.003Z,38.17
2018-11-06T19:50:56.013Z,36.70
2018-11-06T19:53:25.086Z,41.10
2018-11-06T19:55:55.309Z,35.10
2018-11-06T19:58:24.606Z,35.30
2018-11-06T20:00:54.247Z,39.03
2018-11-06T20:03:23.616Z,36.13
2018-11-06T20:05:52.528Z,38.57
2018-11-06T20:08:27.831Z,35.63
2018-11-06T20:10:56.521Z,36.80
2018-11-06T20:13:26.452Z,34.00
2018-11-06T20:15:55.323Z,37.97
2018-11-06T20:18:24.337Z,35.73
2018-11-06T20:20:53.196Z,37.60
2018-11-06T20:23:21.931Z,36.53
2018-11-06T20:25:50.882Z,37.10
2018-11-06T20:28:20.041Z,33.77
2018-11-06T20:30:48.726Z,36.80
2018-11-06T20:33:17.613Z,37.83
2018-11-06T20:35:47.001Z,35.77
2018-11-06T20:38:15.840Z,33.10
2018-11-06T20:40:45.395Z,34.87
2018-11-06T20:43:14.295Z,34.33
2018-11-06T20:45:42.849Z,34.80
2018-11-06T20:48:11.832Z,39.90
2018-11-06T20:50:40.543Z,36.57
2018-11-06T20:53:09.359Z,39.37
2018-11-06T20:55:38.501Z,33.87
2018-11-06T20:58:07.400Z,36.90
2018-11-06T21:00:36.164Z,35.77
2018-11-06T21:03:05.081Z,37.03
2018-11-06T21:05:33.791Z,36.87
2018-11-06T21:08:03.681Z,35.50
2018-11-06T21:10:32.502Z,35.73
2018-11-06T21:13:01.329Z,37.17
2018-11-06T21:15:30.100Z,34.10
2018-11-06T21:17:58.868Z,34.83
2018-11-06T21:20:28.120Z,35.27
2018-11-06T21:22:56.993Z,38.30
2018-11-06T21:25:30.529Z,35.50
2018-11-06T21:28:02.689Z,37.37
2018-11-06T21:30:31.581Z,35.97
2018-11-06T21:33:01.861Z,35.83
2018-11-06T21:35:30.995Z,32.90
2018-11-06T21:37:59.814Z,35.03
2018-11-06T21:40:30.882Z,34.80
2018-11-06T21:43:03.389Z,37.07
2018-11-06T21:45:34.994Z,38.13
2018-11-06T21:48:03.773Z,36.53
2018-11-06T21:50:32.523Z,34.97
2018-11-06T21:53:03.093Z,36.57
2018-11-06T21:55:31.788Z,35.47
2018-11-06T21:58:00.520Z,37.13
2018-11-06T22:00:31.804Z,36.53
2018-11-06T22:03:02.438Z,35.80
2018-11-06T22:05:31.153Z,37.53
2018-11-06T22:08:00.229Z,35.70
2018-11-06T22:10:29.176Z,39.13
2018-11-06T22:12:58.005Z,36.37
2018-11-06T22:15:26.742Z,38.37
2018-11-06T22:17:56.276Z,37.53
2018-11-06T22:20:25.620Z,36.87
2018-11-06T22:22:54.436Z,33.83
2018-11-06T22:25:23.219Z,33.83
2018-11-06T22:27:51.939Z,38.10
2018-11-06T22:30:20.568Z,36.63
2018-11-06T22:32:49.284Z,36.00
2018-11-06T22:35:19.669Z,36.27
2018-11-06T22:37:48.406Z,35.13
2018-11-06T22:40:18.309Z,34.73
2018-11-06T22:42:48.676Z,36.47
2018-11-06T22:45:18.194Z,33.90
2018-11-06T22:47:46.847Z,34.70
2018-11-06T22:50:16.815Z,32.30
2018-11-06T22:52:46.272Z,32.37
2018-11-06T22:55:15.073Z,33.40
2018-11-06T22:57:44.510Z,35.77
2018-11-06T23:00:16.210Z,33.40
2018-11-06T23:02:44.968Z,33.93
2018-11-06T23:05:14.308Z,37.30
2018-11-06T23:07:48.324Z,34.20
2018-11-06T23:10:17.047Z,34.00
2018-11-06T23:12:46.852Z,32.93
2018-11-06T23:15:15.570Z,34.97
2018-11-06T23:17:44.265Z,33.07
2018-11-06T23:20:13.061Z,35.13
2018-11-06T23:22:41.793Z,34.17
2018-11-06T23:25:10.433Z,35.97
2018-11-06T23:27:39.055Z,34.30
2018-11-06T23:30:10.288Z,39.17
2018-11-06T23:32:38.948Z,36.73
2018-11-06T23:35:08.520Z,36.20
2018-11-06T23:37:37.714Z,34.10
2018-11-06T23:40:06.861Z,34.87
2018-11-06T23:42:35.563Z,33.00
2018-11-06T23:45:04.908Z,32.40
2018-11-06T23:47:33.860Z,35.90
2018-11-06T23:50:03.629Z,32.40
2018-11-06T23:52:32.287Z,37.63
2018-11-06T23:55:02.479Z,33.03
2018-11-06T23:57:31.584Z,34.83
